createdAt,value
2016-07-25T00:00:38.277Z,66.95
2016-07-25T00:01:38.311Z,67.14
2016-07-25T00:02:38.331Z,66.95
2016-07-25T00:03:38.359Z,66.95
2016-07-25T00:04:38.384Z,67.05
2016-07-25T00:05:38.411Z,67.05
2016-07-25T00:06:38.447Z,66.95
2016-07-25T00:07:38.461Z,66.95
2016-07-25T00:08:38.489Z,67.14
2016-07-25T00:09:39.218Z,67.24
2016-07-25T00:10:38.549Z,67.24
2016-07-25T00:11:38.566Z,67.14
2016-07-25T00:12:38.594Z,67.43
2016-07-25T00:13:38.628Z,67.24
2016-07-25T00:14:38.663Z,67.63
2016-07-25T00:15:38.671Z,67.53
2016-07-25T00:16:38.748Z,67.24
2016-07-25T00:17:38.725Z,67.63
2016-07-25T00:18:38.749Z,67.63
2016-07-25T00:19:38.777Z,67.53
2016-07-25T00:20:38.811Z,67.72
2016-07-25T00:21:38.853Z,67.63
2016-07-25T00:22:38.862Z,67.24
2016-07-25T00:23:38.883Z,67.53
2016-07-25T00:24:39.610Z,67.43
2016-07-25T00:25:38.937Z,67.53
2016-07-25T00:26:38.961Z,67.63
2016-07-25T00:27:38.988Z,67.43
2016-07-25T00:28:39.013Z,67.53
2016-07-25T00:29:39.040Z,67.53
2016-07-25T00:30:39.067Z,67.53
2016-07-25T00:31:39.094Z,67.63
2016-07-25T00:32:39.119Z,67.24
2016-07-25T00:33:39.146Z,67.33
2016-07-25T00:34:39.173Z,67.33
2016-07-25T00:35:39.200Z,67.53
2016-07-25T00:36:39.227Z,67.33
2016-07-25T00:37:39.256Z,67.53
2016-07-25T00:38:39.280Z,67.33
2016-07-25T00:39:39.307Z,67.33
2016-07-25T00:40:39.332Z,67.33
2016-07-25T00:41:39.359Z,67.53
2016-07-25T00:42:39.386Z,67.33
2016-07-25T00:43:39.410Z,67.24
2016-07-25T00:44:39.437Z,67.33
2016-07-25T00:45:39.464Z,67.53
2016-07-25T00:46:39.504Z,67.33
2016-07-25T00:47:39.514Z,67.53
2016-07-25T00:48:39.541Z,67.53
2016-07-25T00:49:39.568Z,67.53
2016-07-25T00:50:39.594Z,67.53
2016-07-25T00:51:39.629Z,67.33
2016-07-25T00:52:39.648Z,67.72
2016-07-25T00:53:39.690Z,67.53
2016-07-25T00:54:39.724Z,67.53
2016-07-25T00:55:39.726Z,67.53
2016-07-25T00:56:39.754Z,67.33
2016-07-25T00:57:39.779Z,67.43
2016-07-25T00:58:39.804Z,67.53
2016-07-25T00:59:39.832Z,67.33
2016-07-25T01:00:39.859Z,67.43
2016-07-25T01:01:39.885Z,67.33
2016-07-25T01:02:39.917Z,67.43
2016-07-25T01:03:39.941Z,67.24
2016-07-25T01:04:39.970Z,67.33
2016-07-25T01:05:39.989Z,67.53
2016-07-25T01:06:40.017Z,67.14
2016-07-25T01:07:40.043Z,67.43
2016-07-25T01:08:40.070Z,67.53
2016-07-25T01:09:40.096Z,67.24
2016-07-25T01:10:40.123Z,67.33
2016-07-25T01:11:40.149Z,67.24
2016-07-25T01:12:40.174Z,67.43
2016-07-25T01:13:40.201Z,67.14
2016-07-25T01:14:40.228Z,67.14
2016-07-25T01:15:40.255Z,67.33
2016-07-25T01:16:40.328Z,67.33
2016-07-25T01:17:40.307Z,67.14
2016-07-25T01:18:40.332Z,67.14
2016-07-25T01:19:40.357Z,67.14
2016-07-25T01:20:40.384Z,67.43
2016-07-25T01:21:40.426Z,67.14
2016-07-25T01:22:40.440Z,67.53
2016-07-25T01:23:40.474Z,67.33
2016-07-25T01:24:40.490Z,67.33
2016-07-25T01:25:40.525Z,67.24
2016-07-25T01:26:40.543Z,67.43
2016-07-25T01:27:40.568Z,67.53
2016-07-25T01:28:40.595Z,67.33
2016-07-25T01:29:40.620Z,67.53
2016-07-25T01:30:40.647Z,67.43
2016-07-25T01:31:40.672Z,67.53
2016-07-25T01:32:40.712Z,67.24
2016-07-25T01:33:40.748Z,67.72
2016-07-25T01:34:40.752Z,67.63
2016-07-25T01:35:40.777Z,67.53
2016-07-25T01:36:40.806Z,67.63
2016-07-25T01:37:40.833Z,67.43
2016-07-25T01:38:40.856Z,67.24
2016-07-25T01:39:40.884Z,67.63
2016-07-25T01:40:40.910Z,67.63
2016-07-25T01:41:40.935Z,67.53
2016-07-25T01:42:40.961Z,67.24
2016-07-25T01:43:40.991Z,67.63
2016-07-25T01:44:41.015Z,67.14
2016-07-25T01:45:41.042Z,67.24
2016-07-25T01:46:41.068Z,67.63
2016-07-25T01:47:41.096Z,67.43
2016-07-25T01:48:41.122Z,67.24
2016-07-25T01:49:41.150Z,67.33
2016-07-25T01:50:41.174Z,67.63
2016-07-25T01:51:41.201Z,67.33
2016-07-25T01:52:41.226Z,67.33
2016-07-25T01:53:41.251Z,67.53
2016-07-25T01:54:41.280Z,67.63
2016-07-25T01:55:41.306Z,67.24
2016-07-25T01:56:41.332Z,67.53
2016-07-25T01:57:41.360Z,67.33
2016-07-25T01:58:41.386Z,67.63
2016-07-25T01:59:41.409Z,67.24
2016-07-25T02:00:41.437Z,67.63
2016-07-25T02:01:41.461Z,67.43
2016-07-25T02:02:41.490Z,67.43
2016-07-25T02:03:41.515Z,67.53
2016-07-25T02:04:41.557Z,67.33
2016-07-25T02:05:41.585Z,67.53
2016-07-25T02:06:41.602Z,67.33
2016-07-25T02:07:41.621Z,67.53
2016-07-25T02:08:41.648Z,67.63
2016-07-25T02:09:41.675Z,67.24
2016-07-25T02:10:41.701Z,67.53
2016-07-25T02:11:41.734Z,67.63
2016-07-25T02:12:41.774Z,67.53
2016-07-25T02:13:42.479Z,67.53
2016-07-25T02:14:41.805Z,67.53
2016-07-25T02:15:41.834Z,67.53
2016-07-25T02:16:41.858Z,67.63
2016-07-25T02:17:41.885Z,67.63
2016-07-25T02:18:41.912Z,67.24
2016-07-25T02:19:41.939Z,67.33
2016-07-25T02:20:41.964Z,67.72
2016-07-25T02:21:41.993Z,67.24
2016-07-25T02:22:42.017Z,67.53
2016-07-25T02:23:42.045Z,67.63
2016-07-25T02:24:42.084Z,67.53
2016-07-25T02:25:42.097Z,67.53
2016-07-25T02:26:42.123Z,67.33
2016-07-25T02:27:42.150Z,67.53
2016-07-25T02:28:42.875Z,67.33
2016-07-25T02:29:42.207Z,67.53
2016-07-25T02:30:42.229Z,67.53
2016-07-25T02:31:42.254Z,67.43
2016-07-25T02:32:42.279Z,67.43
2016-07-25T02:33:42.307Z,67.43
2016-07-25T02:34:42.332Z,67.63
2016-07-25T02:35:42.363Z,67.53
2016-07-25T02:36:42.388Z,67.72
2016-07-25T02:37:42.411Z,67.33
2016-07-25T02:38:42.439Z,67.63
2016-07-25T02:39:43.171Z,67.53
2016-07-25T02:40:42.494Z,67.53
2016-07-25T02:41:42.516Z,67.53
2016-07-25T02:42:42.544Z,67.33
2016-07-25T02:43:42.576Z,67.33
2016-07-25T02:44:42.612Z,67.33
2016-07-25T02:45:42.623Z,67.53
2016-07-25T02:46:42.656Z,67.43
2016-07-25T02:47:42.674Z,67.53
2016-07-25T02:48:42.703Z,67.43
2016-07-25T02:49:42.728Z,67.43
2016-07-25T02:50:42.755Z,67.43
2016-07-25T02:51:42.800Z,67.33
2016-07-25T02:52:42.806Z,67.33
2016-07-25T02:53:42.834Z,67.53
2016-07-25T02:54:42.859Z,67.43
2016-07-25T02:55:42.885Z,67.53
2016-07-25T02:56:42.922Z,67.33
2016-07-25T02:57:42.939Z,67.24
2016-07-25T02:58:42.964Z,67.43
2016-07-25T02:59:42.990Z,67.33
2016-07-25T03:00:43.016Z,67.33
2016-07-25T03:01:43.045Z,67.14
2016-07-25T03:02:43.068Z,67.14
2016-07-25T03:03:43.097Z,67.33
2016-07-25T03:04:43.122Z,67.33
2016-07-25T03:05:43.148Z,67.24
2016-07-25T03:06:43.183Z,67.53
2016-07-25T03:07:43.213Z,67.33
2016-07-25T03:08:43.239Z,67.33
2016-07-25T03:09:43.253Z,67.43
2016-07-25T03:10:43.281Z,67.72
2016-07-25T03:11:43.307Z,67.63
2016-07-25T03:12:43.334Z,67.53
2016-07-25T03:13:43.358Z,67.63
2016-07-25T03:14:43.385Z,67.43
2016-07-25T03:15:43.414Z,67.33
2016-07-25T03:16:43.458Z,67.72
2016-07-25T03:17:43.466Z,68.4
2016-07-25T03:18:43.496Z,67.63
2016-07-25T03:19:43.518Z,67.53
2016-07-25T03:20:43.542Z,67.63
2016-07-25T03:21:43.570Z,67.53
2016-07-25T03:22:43.597Z,67.63
2016-07-25T03:23:43.637Z,67.33
2016-07-25T03:24:43.671Z,67.53
2016-07-25T03:25:43.675Z,67.43
2016-07-25T03:26:43.701Z,67.53
2016-07-25T03:27:43.727Z,67.63
2016-07-25T03:28:43.754Z,67.33
2016-07-25T03:29:43.780Z,67.14
2016-07-25T03:30:43.807Z,67.33
2016-07-25T03:31:44.529Z,67.24
2016-07-25T03:32:43.860Z,67.33
2016-07-25T03:33:43.886Z,67.24
2016-07-25T03:34:43.911Z,67.24
2016-07-25T03:35:43.938Z,67.33
2016-07-25T03:36:43.965Z,67.43
2016-07-25T03:37:43.991Z,67.33
2016-07-25T03:38:44.015Z,67.53
2016-07-25T03:39:44.741Z,67.43
2016-07-25T03:40:44.069Z,67.43
2016-07-25T03:41:44.095Z,67.63
2016-07-25T03:42:44.121Z,67.53
2016-07-25T03:43:44.147Z,67.63
2016-07-25T03:44:44.174Z,67.43
2016-07-25T03:45:44.200Z,67.33
2016-07-25T03:46:44.228Z,67.33
2016-07-25T03:47:44.261Z,67.33
2016-07-25T03:48:44.286Z,67.33
2016-07-25T03:49:44.304Z,67.53
2016-07-25T03:50:44.331Z,67.43
2016-07-25T03:51:44.359Z,67.33
2016-07-25T03:52:44.386Z,67.53
2016-07-25T03:53:44.411Z,67.53
2016-07-25T03:54:44.437Z,67.53
2016-07-25T03:55:44.472Z,67.53
2016-07-25T03:56:44.489Z,67.53
2016-07-25T03:57:44.516Z,67.14
2016-07-25T03:58:44.542Z,67.33
2016-07-25T03:59:44.570Z,67.33
2016-07-25T04:00:44.595Z,67.33
2016-07-25T04:01:44.622Z,67.33
2016-07-25T04:02:44.663Z,67.63
2016-07-25T04:03:44.700Z,67.43
2016-07-25T04:04:44.700Z,67.05
2016-07-25T04:05:44.727Z,67.05
2016-07-25T04:06:44.754Z,67.24
2016-07-25T04:07:44.778Z,67.05
2016-07-25T04:08:44.804Z,67.43
2016-07-25T04:09:44.832Z,67.14
2016-07-25T04:10:44.856Z,67.53
2016-07-25T04:11:44.884Z,66.95
2016-07-25T04:12:44.910Z,66.85
2016-07-25T04:13:44.936Z,66.95
2016-07-25T04:14:44.963Z,67.24
2016-07-25T04:15:44.989Z,66.56
2016-07-25T04:16:45.014Z,67.53
2016-07-25T04:17:45.052Z,67.14
2016-07-25T04:18:45.067Z,66.66
2016-07-25T04:19:45.099Z,66.75
2016-07-25T04:20:45.121Z,66.85
2016-07-25T04:21:45.147Z,67.05
2016-07-25T04:22:45.172Z,66.85
2016-07-25T04:23:45.199Z,66.27
2016-07-25T04:24:45.225Z,66.47
2016-07-25T04:25:45.252Z,66.47
2016-07-25T04:26:45.276Z,66.47
2016-07-25T04:27:45.308Z,66.37
2016-07-25T04:28:45.347Z,66.47
2016-07-25T04:29:45.355Z,66.17
2016-07-25T04:30:45.383Z,66.47
2016-07-25T04:31:45.409Z,66.47
2016-07-25T04:32:45.451Z,66.17
2016-07-25T04:33:45.464Z,66.27
2016-07-25T04:34:45.497Z,66.56
2016-07-25T04:35:45.531Z,66.66
2016-07-25T04:36:45.543Z,66.27
2016-07-25T04:37:45.566Z,66.47
2016-07-25T04:38:45.594Z,66.37
2016-07-25T04:39:45.620Z,66.56
2016-07-25T04:40:45.648Z,66.08
2016-07-25T04:41:45.672Z,66.02
2016-07-25T04:42:45.723Z,66.11
2016-07-25T04:43:45.729Z,66.5
2016-07-25T04:44:45.751Z,66.5
2016-07-25T04:45:45.780Z,66.08
2016-07-25T04:46:45.805Z,65.53
2016-07-25T04:47:45.837Z,66.02
2016-07-25T04:48:45.858Z,65.72
2016-07-25T04:49:45.885Z,66.02
2016-07-25T04:50:45.915Z,65.92
2016-07-25T04:51:45.939Z,65.82
2016-07-25T04:52:45.962Z,65.82
2016-07-25T04:53:45.991Z,65.92
2016-07-25T04:54:46.018Z,66.02
2016-07-25T04:55:46.043Z,65.82
2016-07-25T04:56:46.067Z,66.02
2016-07-25T04:57:46.095Z,66.02
2016-07-25T04:58:46.122Z,65.92
2016-07-25T04:59:46.148Z,66.02
2016-07-25T05:00:46.173Z,65.43
2016-07-25T05:01:46.201Z,65.34
2016-07-25T05:02:46.224Z,65.14
2016-07-25T05:03:46.253Z,65.47
2016-07-25T05:04:46.279Z,65.43
2016-07-25T05:05:46.308Z,65.72
2016-07-25T05:06:46.334Z,65.63
2016-07-25T05:07:46.359Z,65.63
2016-07-25T05:08:46.386Z,65.63
2016-07-25T05:09:46.413Z,65.72
2016-07-25T05:10:46.439Z,65.66
2016-07-25T05:11:46.465Z,65.66
2016-07-25T05:12:46.493Z,64.98
2016-07-25T05:13:46.524Z,65.47
2016-07-25T05:14:46.557Z,65.66
2016-07-25T05:15:46.568Z,65.66
2016-07-25T05:16:46.602Z,64.95
2016-07-25T05:17:46.622Z,65.37
2016-07-25T05:18:46.648Z,65.43
2016-07-25T05:19:46.674Z,65.56
2016-07-25T05:20:46.703Z,65.47
2016-07-25T05:21:46.747Z,65.17
2016-07-25T05:22:46.753Z,65.47
2016-07-25T05:23:46.783Z,65.37
2016-07-25T05:24:46.816Z,65.27
2016-07-25T05:25:46.833Z,65.37
2016-07-25T05:26:46.861Z,64.5
2016-07-25T05:27:46.887Z,64.79
2016-07-25T05:28:46.918Z,64.69
2016-07-25T05:29:46.940Z,64.59
2016-07-25T05:30:46.967Z,64.01
2016-07-25T05:31:46.990Z,64.01
2016-07-25T05:32:47.019Z,64.3
2016-07-25T05:33:47.045Z,63.92
2016-07-25T05:34:47.073Z,64.11
2016-07-25T05:35:47.097Z,64.11
2016-07-25T05:36:47.134Z,64.3
2016-07-25T05:37:47.154Z,64.59
2016-07-25T05:38:47.185Z,64.69
2016-07-25T05:39:47.203Z,64.11
2016-07-25T05:40:47.232Z,64.5
2016-07-25T05:41:47.257Z,64.4
2016-07-25T05:42:47.289Z,63.92
2016-07-25T05:43:47.309Z,64.5
2016-07-25T05:44:47.339Z,64.3
2016-07-25T05:45:47.363Z,63.92
2016-07-25T05:46:47.394Z,64.4
2016-07-25T05:47:47.415Z,64.5
2016-07-25T05:48:47.443Z,64.98
2016-07-25T05:49:47.468Z,64.59
2016-07-25T05:50:47.496Z,64.59
2016-07-25T05:51:47.519Z,64.59
2016-07-25T05:52:47.549Z,64.69
2016-07-25T05:53:48.284Z,64.59
2016-07-25T05:54:47.618Z,64.79
2016-07-25T05:55:47.629Z,64.5
2016-07-25T05:56:47.655Z,64.11
2016-07-25T05:57:47.682Z,64.62
2016-07-25T05:58:47.710Z,64.59
2016-07-25T05:59:47.733Z,65.47
2016-07-25T06:00:47.758Z,65.56
2016-07-25T06:01:47.807Z,65.95
2016-07-25T06:02:47.810Z,65.47
2016-07-25T06:03:47.839Z,65.17
2016-07-25T06:04:48.562Z,65.85
2016-07-25T06:05:47.892Z,65.75
2016-07-25T06:06:47.918Z,65.47
2016-07-25T06:07:47.946Z,66.14
2016-07-25T06:08:47.969Z,65.66
2016-07-25T06:09:47.999Z,66.14
2016-07-25T06:10:48.023Z,66.05
2016-07-25T06:11:48.052Z,65.75
2016-07-25T06:12:48.076Z,65.75
2016-07-25T06:13:48.106Z,65.95
2016-07-25T06:14:48.130Z,65.79
2016-07-25T06:15:48.157Z,65.95
2016-07-25T06:16:48.182Z,65.47
2016-07-25T06:17:48.211Z,65.5
2016-07-25T06:18:48.238Z,65.69
2016-07-25T06:19:48.263Z,65.3
2016-07-25T06:20:48.289Z,65.17
2016-07-25T06:21:48.316Z,65.47
2016-07-25T06:22:48.343Z,65.4
2016-07-25T06:23:48.369Z,65.01
2016-07-25T06:24:48.404Z,64.72
2016-07-25T06:25:48.422Z,64.72
2016-07-25T06:26:48.447Z,64.62
2016-07-25T06:27:48.474Z,65.01
2016-07-25T06:28:48.502Z,65.3
2016-07-25T06:29:48.530Z,65.89
2016-07-25T06:30:48.551Z,65.17
2016-07-25T06:31:48.577Z,65.27
2016-07-25T06:33:48.645Z,65.72
2016-07-25T06:34:49.370Z,64.72
2016-07-25T06:35:48.682Z,65.4
2016-07-25T06:36:48.703Z,64.62
2016-07-25T06:37:48.732Z,64.5
2016-07-25T06:38:48.755Z,63.73
2016-07-25T06:39:48.779Z,63.73
2016-07-25T06:40:48.806Z,63.24
2016-07-25T06:41:48.833Z,62.82
2016-07-25T06:42:48.860Z,62.73
2016-07-25T06:43:48.883Z,62.92
2016-07-25T06:44:48.909Z,62.44
2016-07-25T06:45:48.930Z,62.31
2016-07-25T06:46:48.959Z,61.73
2016-07-25T06:47:48.985Z,61.73
2016-07-25T06:48:49.011Z,61.73
2016-07-25T06:49:49.031Z,61.83
2016-07-25T06:50:49.057Z,61.51
2016-07-25T06:51:49.082Z,61.22
2016-07-25T06:52:49.104Z,61.12
2016-07-25T06:53:49.130Z,60.93
2016-07-25T06:54:49.157Z,60.54
2016-07-25T06:55:49.186Z,60.83
2016-07-25T06:56:49.222Z,60.16
2016-07-25T06:57:49.926Z,60.54
2016-07-25T06:58:49.254Z,60.44
2016-07-25T06:59:49.278Z,60.64
2016-07-25T07:00:49.318Z,61.47
2016-07-25T07:01:49.325Z,61.19
2016-07-25T07:02:49.350Z,61.09
2016-07-25T07:03:49.378Z,60.64
2016-07-25T07:04:49.402Z,60.22
2016-07-25T07:05:49.423Z,60.06
2016-07-25T07:06:49.445Z,59.77
2016-07-25T07:07:49.467Z,59
2016-07-25T07:08:49.494Z,59.19
2016-07-25T07:09:50.216Z,59.09
2016-07-25T07:10:49.541Z,59.38
2016-07-25T07:11:49.575Z,59.38
2016-07-25T07:12:49.612Z,59
2016-07-25T07:13:49.611Z,58.87
2016-07-25T07:14:49.637Z,59.16
2016-07-25T07:15:49.660Z,58.9
2016-07-25T07:16:49.683Z,59.06
2016-07-25T07:17:49.709Z,59.74
2016-07-25T07:18:49.736Z,59.16
2016-07-25T07:19:49.757Z,58.97
2016-07-25T07:20:49.779Z,59.06
2016-07-25T07:21:49.802Z,59.74
2016-07-25T07:22:49.829Z,60.8
2016-07-25T07:23:49.853Z,61.77
2016-07-25T07:24:49.908Z,61.96
2016-07-25T07:25:49.919Z,62.34
2016-07-25T07:26:50.635Z,62.54
2016-07-25T07:27:49.965Z,62.54
2016-07-25T07:28:49.967Z,63.02
2016-07-25T07:29:49.990Z,62.25
2016-07-25T07:30:50.017Z,62.25
2016-07-25T07:31:50.035Z,62.63
2016-07-25T07:32:50.058Z,63.02
2016-07-25T07:33:50.079Z,63.02
2016-07-25T07:34:50.106Z,62.95
2016-07-25T07:35:50.130Z,63.89
2016-07-25T07:36:50.147Z,63.5
2016-07-25T07:37:50.170Z,63.31
2016-07-25T07:38:50.191Z,63.98
2016-07-25T07:39:50.213Z,63.89
2016-07-25T07:40:50.236Z,63.6
2016-07-25T07:41:50.272Z,62.15
2016-07-25T07:42:50.402Z,61.67
2016-07-25T07:43:50.348Z,61.67
2016-07-25T07:44:50.327Z,61.57
2016-07-25T07:45:50.347Z,61.35
2016-07-25T07:46:50.373Z,61.44
2016-07-25T07:47:50.393Z,61.16
2016-07-25T07:48:50.417Z,60.86
2016-07-25T07:49:50.443Z,61.16
2016-07-25T07:50:50.483Z,61.35
2016-07-25T07:51:50.487Z,61.64
2016-07-25T07:52:50.509Z,61.16
2016-07-25T07:53:50.546Z,61.35
2016-07-25T07:54:50.554Z,63.28
2016-07-25T07:55:50.578Z,62.41
2016-07-25T07:56:51.305Z,62.51
2016-07-25T07:57:50.629Z,61.19
2016-07-25T07:58:50.652Z,62.89
2016-07-25T07:59:50.672Z,61.93
2016-07-25T08:00:50.695Z,63.47
2016-07-25T08:01:50.717Z,61.77
2016-07-25T08:02:50.741Z,60.35
2016-07-25T08:03:51.466Z,58.35
2016-07-25T08:04:50.789Z,60.06
2016-07-25T08:05:50.806Z,60.44
2016-07-25T08:06:50.833Z,62.05
2016-07-25T08:07:50.859Z,62.63
2016-07-25T08:08:50.875Z,62.73
2016-07-25T08:09:50.904Z,62.57
2016-07-25T08:10:50.926Z,61.89
2016-07-25T08:11:50.947Z,61.99
2016-07-25T08:12:50.968Z,61.51
2016-07-25T08:13:51.003Z,61.7
2016-07-25T08:14:51.036Z,61.7
2016-07-25T08:15:51.039Z,61.6
2016-07-25T08:16:51.060Z,62.76
2016-07-25T08:17:51.084Z,62.7
2016-07-25T08:18:51.109Z,62.89
2016-07-25T08:19:51.133Z,63.18
2016-07-25T08:20:51.157Z,63.28
2016-07-25T08:21:51.183Z,63.28
2016-07-25T08:22:51.336Z,62.98
2016-07-25T08:23:51.932Z,62.7
2016-07-25T08:24:51.252Z,62.63
2016-07-25T08:25:51.277Z,63.11
2016-07-25T08:26:51.301Z,62.44
2016-07-25T08:27:51.323Z,63.31
2016-07-25T08:28:51.402Z,62.63
2016-07-25T08:29:51.389Z,61.95
2016-07-25T08:30:52.109Z,62.24
2016-07-25T08:31:51.417Z,62.37
2016-07-25T08:32:51.444Z,62.18
2016-07-25T08:33:51.467Z,62.37
2016-07-25T08:34:51.491Z,62.47
2016-07-25T08:35:51.514Z,62.47
2016-07-25T08:36:51.542Z,63.34
2016-07-25T08:37:51.570Z,63.14
2016-07-25T08:38:57.489Z,63.66
2016-07-25T08:39:57.513Z,63.18
2016-07-25T08:40:57.539Z,63.98
2016-07-25T08:41:57.561Z,62.43
2016-07-25T08:42:57.589Z,62.82
2016-07-25T08:43:58.341Z,64.11
2016-07-25T08:44:57.639Z,64.11
2016-07-25T08:45:57.663Z,61.88
2016-07-25T08:46:57.691Z,62.1
2016-07-25T08:47:57.734Z,61.91
2016-07-25T08:48:57.740Z,61.24
2016-07-25T08:49:57.774Z,61.52
2016-07-25T08:50:58.498Z,60.75
2016-07-25T08:51:57.828Z,62.1
2016-07-25T08:52:57.863Z,61.72
2016-07-25T08:53:57.871Z,60.49
2016-07-25T08:54:57.896Z,62.13
2016-07-25T08:55:57.922Z,61.36
2016-07-25T08:56:57.947Z,61.46
2016-07-25T08:57:57.973Z,61.75
2016-07-25T08:58:57.999Z,61.17
2016-07-25T08:59:58.032Z,60.39
2016-07-25T09:00:58.750Z,61.85
2016-07-25T09:01:58.079Z,61.98
2016-07-25T09:02:58.820Z,61.29
2016-07-25T09:03:58.133Z,61.68
2016-07-25T09:04:58.158Z,62.07
2016-07-25T09:05:58.185Z,61.98
2016-07-25T09:06:58.212Z,62.07
2016-07-25T09:07:58.240Z,61.68
2016-07-25T09:08:58.266Z,61.58
2016-07-25T09:09:58.297Z,61.19
2016-07-25T09:10:58.318Z,61.98
2016-07-25T09:11:58.356Z,61.49
2016-07-25T09:12:58.370Z,60.52
2016-07-25T09:13:58.404Z,60.61
2016-07-25T09:14:58.425Z,59.45
2016-07-25T09:15:58.462Z,58.7
2016-07-25T09:16:58.478Z,58.29
2016-07-25T09:17:58.512Z,59.28
2016-07-25T09:18:58.529Z,58.77
2016-07-25T09:19:58.573Z,58.58
2016-07-25T09:20:58.585Z,58
2016-07-25T09:21:58.612Z,57.22
2016-07-25T09:22:58.640Z,57.61
2016-07-25T09:23:58.664Z,57.58
2016-07-25T09:24:58.692Z,57.29
2016-07-25T09:25:58.718Z,57.09
2016-07-25T09:26:58.746Z,57.19
2016-07-25T09:27:59.479Z,56.9
2016-07-25T09:28:58.800Z,56.9
2016-07-25T09:29:58.827Z,56.61
2016-07-25T09:30:58.856Z,56.13
2016-07-25T09:31:58.887Z,56.41
2016-07-25T09:32:58.906Z,55.64
2016-07-25T09:33:58.933Z,55.54
2016-07-25T09:34:58.960Z,55.64
2016-07-25T09:35:58.988Z,55.74
2016-07-25T09:36:59.015Z,55.64
2016-07-25T09:37:59.040Z,55.06
2016-07-25T09:38:59.078Z,55.04
2016-07-25T09:39:59.111Z,55.04
2016-07-25T09:40:59.126Z,54.64
2016-07-25T09:41:59.148Z,54.55
2016-07-25T09:42:59.175Z,54.45
2016-07-25T09:43:59.202Z,54.52
2016-07-25T09:44:59.928Z,54.23
2016-07-25T09:45:59.255Z,53.75
2016-07-25T09:46:59.302Z,54.23
2016-07-25T09:47:59.312Z,53.85
